createdAt,value
2022-08-14T00:00:16.929Z,80.1
2022-08-14T00:01:24.376Z,80.3
2022-08-14T00:02:17.144Z,80.4
2022-08-14T00:03:19.274Z,80.5
2022-08-14T00:04:32.437Z,80.4
2022-08-14T00:05:17.175Z,80.5
2022-08-14T00:06:29.315Z,80.7
2022-08-14T00:07:16.904Z,80.7
2022-08-14T00:08:43.707Z,80.7
2022-08-14T00:09:17.772Z,80.8
2022-08-14T00:10:50.751Z,80.8
2022-08-14T00:11:17.223Z,80.8
2022-08-14T00:12:24.714Z,81.0
2022-08-14T00:13:18.643Z,81.1
2022-08-14T00:14:17.567Z,81.1
2022-08-14T00:15:17.228Z,81.1
2022-08-14T00:16:40.678Z,81.1
2022-08-14T00:17:17.643Z,81.2
2022-08-14T00:18:30.358Z,81.1
2022-08-14T00:19:21.274Z,81.1
2022-08-14T00:20:29.235Z,81.1
2022-08-14T00:21:17.226Z,81.1
2022-08-14T00:22:44.727Z,81.1
2022-08-14T00:23:18.016Z,81.2
2022-08-14T00:24:30.898Z,81.2
2022-08-14T00:25:16.608Z,81.3
2022-08-14T00:26:23.381Z,81.3
2022-08-14T00:27:17.899Z,81.3
2022-08-14T00:28:18.456Z,81.3
2022-08-14T00:29:16.956Z,81.4
2022-08-14T00:30:19.292Z,81.1
2022-08-14T00:31:16.762Z,81.1
2022-08-14T00:32:50.411Z,81.2
2022-08-14T00:33:17.244Z,81.2
2022-08-14T00:34:35.583Z,81.4
2022-08-14T00:35:17.097Z,81.4
2022-08-14T00:36:34.434Z,81.5
2022-08-14T00:37:17.456Z,81.4
2022-08-14T00:38:16.890Z,81.5
2022-08-14T00:39:18.739Z,81.6
2022-08-14T00:40:33.252Z,81.5
2022-08-14T00:41:18.222Z,81.6
2022-08-14T00:42:53.081Z,81.6
2022-08-14T00:43:16.929Z,81.6
2022-08-14T00:44:32.164Z,81.5
2022-08-14T00:45:16.427Z,81.5
2022-08-14T00:46:32.942Z,81.5
2022-08-14T00:47:17.518Z,81.7
2022-08-14T00:48:34.159Z,81.7
2022-08-14T00:49:21.332Z,81.8
2022-08-14T00:50:18.225Z,81.8
2022-08-14T00:51:16.663Z,81.8
2022-08-14T00:52:18.696Z,81.6
2022-08-14T00:53:17.303Z,81.6
2022-08-14T00:54:22.326Z,81.6
2022-08-14T00:55:16.793Z,81.6
2022-08-14T00:56:18.649Z,81.6
2022-08-14T00:57:17.294Z,81.6
2022-08-14T00:58:16.764Z,81.6
2022-08-14T00:59:17.219Z,81.8
2022-08-14T01:00:34.595Z,82.1
2022-08-14T01:01:17.470Z,82.2
2022-08-14T01:02:20.212Z,82.4
2022-08-14T01:03:17.125Z,82.4
2022-08-14T01:04:37.592Z,82.5
2022-08-14T01:05:17.340Z,82.4
2022-08-14T01:06:18.778Z,82.6
2022-08-14T01:07:18.040Z,82.6
2022-08-14T01:08:52.560Z,82.6
2022-08-14T01:09:16.983Z,82.7
2022-08-14T01:10:16.412Z,82.7
2022-08-14T01:11:19.714Z,82.7
2022-08-14T01:12:29.596Z,82.7
2022-08-14T01:13:16.679Z,82.7
2022-08-14T01:14:28.443Z,82.8
2022-08-14T01:15:17.118Z,82.7
2022-08-14T01:16:19.558Z,82.7
2022-08-14T01:17:22.179Z,82.8
2022-08-14T01:18:16.954Z,82.8
2022-08-14T01:19:20.074Z,82.8
2022-08-14T01:20:29.762Z,82.8
2022-08-14T01:21:17.323Z,83.0
2022-08-14T01:22:19.249Z,83.1
2022-08-14T01:23:19.208Z,83.2
2022-08-14T01:24:30.714Z,83.2
2022-08-14T01:25:16.887Z,83.3
2022-08-14T01:26:34.953Z,83.4
2022-08-14T01:27:16.446Z,83.5
2022-08-14T01:28:34.150Z,83.6
2022-08-14T01:29:40.382Z,83.7
2022-08-14T01:30:21.128Z,83.8
2022-08-14T01:31:16.775Z,83.8
2022-08-14T01:32:23.585Z,83.9
2022-08-14T01:33:16.988Z,83.9
2022-08-14T01:35:16.991Z,84.1
2022-08-14T01:36:04.796Z,84.2
2022-08-14T01:36:23.491Z,84.2
2022-08-14T01:37:19.136Z,84.7
2022-08-14T01:38:16.716Z,85.1
2022-08-14T01:39:17.284Z,84.7
2022-08-14T01:40:20.232Z,84.9
2022-08-14T01:41:23.174Z,85.0
2022-08-14T01:42:30.931Z,85.0
2022-08-14T01:43:26.568Z,85.1
2022-08-14T01:44:31.452Z,85.2
2022-08-14T01:45:25.819Z,85.7
2022-08-14T01:46:24.889Z,85.6
2022-08-14T01:47:22.511Z,85.4
2022-08-14T01:48:21.075Z,85.3
2022-08-14T01:49:16.501Z,85.3
2022-08-14T01:50:16.920Z,85.0
2022-08-14T01:51:20.226Z,85.1
2022-08-14T01:52:33.545Z,85.1
2022-08-14T01:53:16.573Z,85.0
2022-08-14T01:54:18.492Z,84.9
2022-08-14T01:55:17.162Z,84.8
2022-08-14T01:56:18.989Z,84.8
2022-08-14T01:57:16.456Z,84.7
2022-08-14T01:58:21.178Z,84.8
2022-08-14T01:59:18.844Z,84.8
2022-08-14T02:00:18.286Z,84.9
2022-08-14T02:01:16.851Z,84.9
2022-08-14T02:02:20.703Z,84.8
2022-08-14T02:03:17.199Z,84.8
2022-08-14T02:04:41.194Z,84.8
2022-08-14T02:05:16.651Z,84.9
2022-08-14T02:06:32.798Z,85.0
2022-08-14T02:07:34.790Z,85.3
2022-08-14T02:08:34.859Z,85.3
2022-08-14T02:09:22.477Z,85.2
2022-08-14T02:10:18.147Z,85.2
2022-08-14T02:11:18.717Z,85.3
2022-08-14T02:12:29.297Z,85.3
2022-08-14T02:13:17.625Z,85.5
2022-08-14T02:14:30.890Z,85.8
2022-08-14T02:15:16.907Z,85.8
2022-08-14T02:16:23.181Z,86.1
2022-08-14T02:17:16.616Z,86.2
2022-08-14T02:18:18.553Z,86.0
2022-08-14T02:19:17.015Z,86.0
2022-08-14T02:20:24.066Z,86.3
2022-08-14T02:21:23.090Z,86.3
2022-08-14T02:22:47.504Z,86.4
2022-08-14T02:23:32.043Z,86.4
2022-08-14T02:24:38.573Z,86.5
2022-08-14T02:25:17.228Z,86.4
2022-08-14T02:26:29.470Z,86.1
2022-08-14T02:28:19.665Z,85.9
2022-08-14T02:28:56.182Z,86.0
2022-08-14T02:29:17.199Z,86.0
2022-08-14T02:30:16.804Z,86.0
2022-08-14T02:31:17.086Z,86.0
2022-08-14T02:32:30.171Z,86.0
2022-08-14T02:33:17.423Z,86.1
2022-08-14T02:34:27.601Z,86.1
2022-08-14T02:35:17.819Z,86.0
2022-08-14T02:37:03.246Z,86.0
2022-08-14T02:37:17.037Z,86.1
2022-08-14T02:38:29.849Z,86.2
2022-08-14T02:39:20.499Z,86.2
2022-08-14T02:40:16.753Z,86.2
2022-08-14T02:41:19.573Z,86.2
2022-08-14T02:42:37.322Z,86.1
2022-08-14T02:43:22.873Z,86.0
2022-08-14T02:44:30.031Z,85.9
2022-08-14T02:45:17.913Z,85.9
2022-08-14T02:46:27.048Z,85.9
2022-08-14T02:47:21.304Z,86.0
2022-08-14T02:49:02.446Z,86.0
2022-08-14T02:49:25.406Z,85.8
2022-08-14T02:50:17.671Z,85.8
2022-08-14T02:51:18.831Z,85.9
2022-08-14T02:52:54.637Z,86.0
2022-08-14T02:53:16.842Z,86.0
2022-08-14T02:54:19.993Z,85.8
2022-08-14T02:55:20.728Z,85.8
2022-08-14T02:56:29.445Z,86.0
2022-08-14T02:57:39.525Z,86.1
2022-08-14T02:58:30.754Z,86.1
2022-08-14T02:59:16.741Z,86.1
2022-08-14T03:00:19.193Z,86.3
2022-08-14T03:01:16.738Z,86.5
2022-08-14T03:02:33.690Z,86.7
2022-08-14T03:03:17.133Z,86.7
2022-08-14T03:04:20.859Z,86.6
2022-08-14T03:05:17.849Z,86.4
2022-08-14T03:06:34.839Z,86.4
2022-08-14T03:07:17.248Z,86.4
2022-08-14T03:08:19.194Z,86.4
2022-08-14T03:09:17.122Z,86.3
2022-08-14T03:10:32.229Z,86.4
2022-08-14T03:11:16.969Z,86.4
2022-08-14T03:12:31.983Z,86.5
2022-08-14T03:13:21.336Z,86.5
2022-08-14T03:14:18.732Z,86.5
2022-08-14T03:15:21.124Z,86.5
2022-08-14T03:16:27.145Z,86.5
2022-08-14T03:17:17.632Z,86.6
2022-08-14T03:18:18.694Z,86.6
2022-08-14T03:19:19.868Z,86.6
2022-08-14T03:20:17.391Z,86.6
2022-08-14T03:21:16.823Z,86.8
2022-08-14T03:22:18.011Z,87.1
2022-08-14T03:23:16.689Z,87.4
2022-08-14T03:24:23.811Z,87.3
2022-08-14T03:25:17.389Z,87.2
2022-08-14T03:26:29.686Z,87.4
2022-08-14T03:27:16.833Z,87.5
2022-08-14T03:28:29.759Z,87.7
2022-08-14T03:29:17.276Z,87.8
2022-08-14T03:30:23.715Z,87.7
2022-08-14T03:31:17.187Z,87.7
2022-08-14T03:32:16.573Z,87.6
2022-08-14T03:33:17.123Z,87.6
2022-08-14T03:34:45.755Z,87.6
2022-08-14T03:35:17.319Z,87.2
2022-08-14T03:37:29.157Z,87.1
2022-08-14T03:37:50.869Z,87.0
2022-08-14T03:39:11.267Z,87.1
2022-08-14T03:39:24.292Z,87.0
2022-08-14T03:40:18.716Z,87.0
2022-08-14T03:41:17.233Z,87.0
2022-08-14T03:42:19.778Z,87.0
2022-08-14T03:43:16.691Z,86.8
2022-08-14T03:45:20.444Z,86.7
2022-08-14T03:45:35.284Z,86.7
2022-08-14T03:46:39.389Z,86.8
2022-08-14T03:47:17.051Z,86.8
2022-08-14T03:48:29.560Z,86.8
2022-08-14T03:49:28.962Z,87.0
2022-08-14T03:50:31.206Z,87.1
2022-08-14T03:51:16.798Z,87.1
2022-08-14T03:52:38.682Z,87.7
2022-08-14T03:53:18.437Z,88.1
2022-08-14T03:54:20.924Z,88.2
2022-08-14T03:55:18.174Z,88.4
2022-08-14T03:56:21.472Z,88.5
2022-08-14T03:57:17.193Z,88.7
2022-08-14T03:58:35.194Z,88.4
2022-08-14T03:59:18.273Z,88.5
2022-08-14T04:00:40.988Z,88.6
2022-08-14T04:01:17.355Z,88.6
2022-08-14T04:02:33.473Z,88.5
2022-08-14T04:03:24.542Z,88.4
2022-08-14T04:04:17.990Z,88.7
2022-08-14T04:05:17.019Z,88.7
2022-08-14T04:06:21.285Z,88.9
2022-08-14T04:07:18.614Z,89.0
2022-08-14T04:08:30.912Z,89.1
2022-08-14T04:09:20.168Z,88.7
2022-08-14T04:10:17.436Z,88.7
2022-08-14T04:11:18.309Z,88.7
2022-08-14T04:12:26.857Z,88.7
2022-08-14T04:13:17.338Z,89.2
2022-08-14T04:14:16.878Z,89.2
2022-08-14T04:15:19.230Z,89.1
2022-08-14T04:16:16.663Z,89.4
2022-08-14T04:17:18.127Z,89.8
2022-08-14T04:18:19.124Z,89.8
2022-08-14T04:19:16.847Z,89.8
2022-08-14T04:20:26.059Z,89.3
2022-08-14T04:21:16.610Z,89.3
2022-08-14T04:22:19.533Z,89.3
2022-08-14T04:23:29.308Z,89.0
2022-08-14T04:24:17.849Z,88.9
2022-08-14T04:25:16.992Z,88.7
2022-08-14T04:26:42.071Z,88.8
2022-08-14T04:27:17.377Z,89.0
2022-08-14T04:28:58.617Z,89.1
2022-08-14T04:29:17.370Z,89.0
2022-08-14T04:30:30.987Z,89.0
2022-08-14T04:32:59.476Z,89.0
2022-08-14T04:32:59.610Z,89.0
2022-08-14T04:33:21.341Z,89.0
2022-08-14T04:34:28.391Z,89.0
2022-08-14T04:35:23.389Z,88.9
2022-08-14T04:36:17.776Z,89.6
2022-08-14T04:37:25.446Z,89.8
2022-08-14T04:38:36.278Z,89.5
2022-08-14T04:39:16.785Z,89.4
2022-08-14T04:40:17.444Z,89.5
2022-08-14T04:41:16.889Z,89.2
2022-08-14T04:42:18.094Z,89.2
2022-08-14T04:43:17.773Z,88.9
2022-08-14T04:44:35.773Z,88.8
2022-08-14T04:45:17.025Z,88.8
2022-08-14T04:46:55.018Z,88.9
2022-08-14T04:47:16.883Z,88.8
2022-08-14T04:48:36.868Z,88.5
2022-08-14T04:49:16.774Z,88.3
2022-08-14T04:50:17.225Z,88.3
2022-08-14T04:51:17.079Z,88.1
2022-08-14T04:52:25.042Z,88.0
2022-08-14T04:53:23.153Z,88.0
2022-08-14T04:54:17.437Z,88.1
2022-08-14T04:55:18.427Z,87.7
2022-08-14T04:56:30.356Z,87.6
2022-08-14T04:57:16.983Z,87.6
2022-08-14T04:58:32.045Z,87.0
2022-08-14T04:59:16.724Z,86.9
2022-08-14T05:00:18.384Z,87.0
2022-08-14T05:01:19.835Z,87.3
2022-08-14T05:02:18.409Z,87.0
2022-08-14T05:03:16.879Z,86.9
2022-08-14T05:04:20.703Z,86.8
2022-08-14T05:05:20.303Z,86.5
2022-08-14T05:06:34.742Z,86.2
2022-08-14T05:07:17.303Z,85.2
2022-08-14T05:08:31.539Z,84.9
2022-08-14T05:09:17.420Z,84.7
2022-08-14T05:10:22.213Z,84.4
2022-08-14T05:11:17.987Z,84.3
2022-08-14T05:13:10.523Z,84.1
2022-08-14T05:13:17.289Z,84.0
2022-08-14T05:14:42.687Z,83.9
2022-08-14T05:15:18.616Z,83.9
2022-08-14T05:16:17.039Z,84.0
2022-08-14T05:17:16.446Z,83.8
2022-08-14T05:18:37.315Z,83.9
2022-08-14T05:19:29.420Z,84.0
2022-08-14T05:20:33.545Z,84.4
2022-08-14T05:21:58.667Z,84.5
2022-08-14T05:22:19.429Z,84.6
2022-08-14T05:23:17.623Z,84.6
2022-08-14T05:24:17.898Z,84.7
2022-08-14T05:25:17.765Z,84.9
2022-08-14T05:26:17.560Z,85.1
2022-08-14T05:27:17.012Z,85.3
2022-08-14T05:28:16.819Z,85.2
2022-08-14T05:29:18.352Z,85.0
2022-08-14T05:30:16.896Z,85.0
2022-08-14T05:31:21.351Z,84.8
2022-08-14T05:32:17.889Z,84.7
2022-08-14T05:33:17.359Z,84.3
2022-08-14T05:34:19.212Z,83.9
2022-08-14T05:35:17.179Z,83.7
2022-08-14T05:36:17.301Z,83.5
2022-08-14T05:37:16.753Z,83.6
2022-08-14T05:38:30.917Z,83.6
2022-08-14T05:39:17.513Z,83.3
2022-08-14T05:40:18.830Z,83.0
2022-08-14T05:41:18.438Z,83.1
2022-08-14T05:42:29.537Z,83.0
2022-08-14T05:43:16.483Z,83.0
2022-08-14T05:44:16.922Z,82.9
2022-08-14T05:45:17.605Z,82.8
2022-08-14T05:46:17.046Z,82.6
2022-08-14T05:47:18.242Z,82.7
2022-08-14T05:48:33.197Z,82.4
2022-08-14T05:49:16.985Z,82.1
2022-08-14T05:50:19.651Z,82.1
2022-08-14T05:51:17.373Z,82.1
2022-08-14T05:52:18.415Z,81.8
2022-08-14T05:53:16.898Z,81.6
2022-08-14T05:54:27.630Z,81.5
2022-08-14T05:55:23.013Z,81.3
2022-08-14T05:56:16.668Z,80.9
2022-08-14T05:57:17.159Z,80.9
2022-08-14T05:58:16.860Z,80.6
2022-08-14T05:59:19.448Z,80.6
2022-08-14T06:00:30.763Z,80.5
2022-08-14T06:01:17.342Z,80.3
2022-08-14T06:02:21.868Z,80.0
2022-08-14T06:03:17.336Z,80.2
2022-08-14T06:04:16.774Z,79.8
2022-08-14T06:05:23.527Z,79.4
2022-08-14T06:06:16.954Z,79.3
2022-08-14T06:07:17.416Z,79.4
2022-08-14T06:08:31.567Z,79.1
2022-08-14T06:09:16.892Z,78.9
2022-08-14T06:10:19.229Z,78.9
2022-08-14T06:11:30.864Z,78.6
2022-08-14T06:12:31.214Z,78.6
2022-08-14T06:13:17.617Z,78.1
2022-08-14T06:14:24.285Z,77.8
2022-08-14T06:15:20.658Z,77.3
2022-08-14T06:16:18.404Z,77.0
2022-08-14T06:17:26.340Z,76.8
2022-08-14T06:18:18.203Z,76.6
2022-08-14T06:19:18.655Z,76.4
2022-08-14T06:20:22.198Z,76.4
2022-08-14T06:21:17.720Z,76.1
2022-08-14T06:22:17.515Z,75.8
2022-08-14T06:23:19.921Z,75.6
2022-08-14T06:24:19.262Z,75.5
2022-08-14T06:25:19.696Z,75.3
2022-08-14T06:26:22.282Z,75.3
2022-08-14T06:27:18.147Z,75.1
2022-08-14T06:28:28.599Z,76.3
2022-08-14T06:29:17.137Z,76.0
2022-08-14T06:30:16.569Z,75.6
2022-08-14T06:31:16.985Z,74.5
2022-08-14T06:32:37.178Z,74.2
2022-08-14T06:33:18.295Z,74.0
2022-08-14T06:35:05.056Z,73.9
2022-08-14T06:35:17.267Z,74.1
2022-08-14T06:36:18.728Z,73.9
2022-08-14T06:37:17.305Z,74.1
2022-08-14T06:38:17.747Z,73.8
2022-08-14T06:39:17.473Z,73.6
2022-08-14T06:40:28.554Z,73.1
2022-08-14T06:41:21.059Z,72.6
2022-08-14T06:42:32.754Z,71.5
2022-08-14T06:43:17.138Z,71.8
2022-08-14T06:44:17.169Z,70.9
2022-08-14T06:45:18.271Z,70.8
2022-08-14T06:46:32.657Z,70.1
2022-08-14T06:47:16.666Z,70.0
2022-08-14T06:48:17.573Z,69.5
2022-08-14T06:49:17.035Z,68.9
2022-08-14T06:50:17.800Z,68.0
2022-08-14T06:51:17.290Z,67.4
2022-08-14T06:52:17.575Z,67.4
2022-08-14T06:53:17.806Z,67.6
2022-08-14T06:54:17.459Z,67.9
2022-08-14T06:55:16.446Z,69.5
2022-08-14T06:56:16.862Z,68.7
2022-08-14T06:57:17.283Z,68.7
2022-08-14T06:58:31.005Z,68.7
2022-08-14T06:59:20.203Z,67.7
2022-08-14T07:00:30.701Z,67.4
2022-08-14T07:01:23.359Z,66.1
2022-08-14T07:02:19.269Z,66.0
2022-08-14T07:03:16.721Z,65.6
2022-08-14T07:04:24.276Z,65.9
2022-08-14T07:05:23.455Z,66.5
2022-08-14T07:06:45.851Z,66.5
2022-08-14T07:07:17.758Z,65.3
2022-08-14T07:08:20.581Z,65.4
2022-08-14T07:09:23.518Z,65.8
2022-08-14T07:10:17.754Z,65.9
2022-08-14T07:11:19.733Z,66.9
2022-08-14T07:12:35.115Z,66.1
2022-08-14T07:13:16.749Z,65.3
2022-08-14T07:14:17.199Z,64.3
2022-08-14T07:15:17.914Z,65.6
2022-08-14T07:16:19.209Z,66.1
2022-08-14T07:17:16.691Z,65.0
2022-08-14T07:18:17.155Z,64.3
2022-08-14T07:19:16.540Z,63.6
2022-08-14T07:20:19.003Z,64.1
2022-08-14T07:21:17.153Z,63.3
2022-08-14T07:22:20.749Z,63.0
2022-08-14T07:23:21.848Z,62.6
2022-08-14T07:24:31.245Z,63.9
2022-08-14T07:25:17.121Z,64.4
2022-08-14T07:26:17.474Z,64.3
2022-08-14T07:27:16.896Z,63.2
2022-08-14T07:28:21.394Z,62.6
2022-08-14T07:29:19.843Z,61.5
2022-08-14T07:30:33.367Z,60.6
2022-08-14T07:31:17.318Z,59.9
2022-08-14T07:32:30.287Z,59.9
2022-08-14T07:33:28.993Z,59.2
2022-08-14T07:34:36.753Z,58.6
2022-08-14T07:35:17.381Z,58.1
2022-08-14T07:36:30.107Z,57.3
2022-08-14T07:37:17.273Z,56.6
2022-08-14T07:38:16.748Z,57.2
2022-08-14T07:39:27.987Z,57.2
2022-08-14T07:40:29.948Z,57.6
2022-08-14T07:41:16.945Z,59.0
2022-08-14T07:42:22.851Z,59.0
2022-08-14T07:43:17.390Z,58.7
2022-08-14T07:44:33.037Z,58.8
2022-08-14T07:45:17.404Z,59.4
2022-08-14T07:46:29.637Z,59.2
2022-08-14T07:47:17.416Z,59.5
2022-08-14T07:48:19.552Z,57.7
2022-08-14T07:49:18.434Z,58.8
2022-08-14T07:50:20.324Z,58.1
2022-08-14T07:51:16.800Z,56.6
2022-08-14T07:52:30.359Z,56.6
2022-08-14T07:53:18.913Z,56.2
2022-08-14T07:54:30.207Z,56.1
2022-08-14T07:55:21.308Z,59.2
2022-08-14T07:56:44.540Z,59.8
2022-08-14T07:57:25.286Z,60.3
2022-08-14T07:58:30.251Z,59.1
2022-08-14T07:59:17.289Z,58.3
2022-08-14T08:00:30.146Z,57.3
2022-08-14T08:01:18.440Z,56.7
2022-08-14T08:02:21.853Z,58.0
2022-08-14T08:03:16.789Z,56.6
2022-08-14T08:04:25.152Z,55.3
2022-08-14T08:05:17.281Z,54.6
2022-08-14T08:06:17.842Z,54.6
2022-08-14T08:07:16.803Z,55.1
2022-08-14T08:08:27.752Z,56.0
2022-08-14T08:09:19.054Z,57.1
2022-08-14T08:10:31.055Z,55.5
2022-08-14T08:11:17.390Z,54.5
2022-08-14T08:12:17.081Z,54.6
2022-08-14T08:13:16.995Z,53.4
2022-08-14T08:14:18.264Z,53.4
2022-08-14T08:15:16.690Z,52.3
2022-08-14T08:16:17.152Z,52.9
2022-08-14T08:17:16.601Z,52.7
2022-08-14T08:18:29.748Z,53.6
2022-08-14T08:19:16.455Z,54.3
2022-08-14T08:20:20.532Z,54.6
2022-08-14T08:21:18.179Z,54.0
2022-08-14T08:22:17.245Z,54.0
2022-08-14T08:23:20.842Z,54.2
2022-08-14T08:24:21.063Z,53.5
2022-08-14T08:25:18.443Z,53.3
2022-08-14T08:26:17.653Z,53.3
2022-08-14T08:27:17.582Z,53.4
2022-08-14T08:28:26.626Z,53.9
2022-08-14T08:29:16.943Z,54.4
2022-08-14T08:30:18.310Z,54.4
2022-08-14T08:31:18.804Z,54.9
2022-08-14T08:32:16.822Z,55.1
2022-08-14T08:33:18.738Z,54.8
2022-08-14T08:34:18.472Z,55.0
2022-08-14T08:35:17.041Z,55.0
2022-08-14T08:36:19.180Z,53.9
2022-08-14T08:37:18.526Z,52.7
2022-08-14T08:39:16.212Z,52.8
2022-08-14T08:39:23.114Z,53.2
2022-08-14T08:40:21.056Z,53.0
2022-08-14T08:41:17.527Z,52.4
2022-08-14T08:42:16.616Z,52.7
2022-08-14T08:43:17.090Z,51.8
2022-08-14T08:44:32.395Z,51.4
2022-08-14T08:45:17.661Z,51.7
2022-08-14T08:46:24.253Z,53.8
2022-08-14T08:47:16.755Z,54.7
2022-08-14T08:48:31.339Z,53.9
2022-08-14T08:49:17.494Z,53.6
2022-08-14T08:50:31.200Z,53.9
2022-08-14T08:51:17.034Z,53.7
2022-08-14T08:52:31.483Z,53.6
2022-08-14T08:53:16.482Z,52.7
2022-08-14T08:54:20.235Z,51.7
2022-08-14T08:55:17.184Z,51.3
2022-08-14T08:56:30.122Z,51.0
2022-08-14T08:57:21.763Z,53.6
2022-08-14T08:58:24.955Z,55.7
2022-08-14T08:59:16.678Z,54.9
2022-08-14T09:00:26.373Z,53.4
2022-08-14T09:01:18.277Z,51.8
2022-08-14T09:02:17.724Z,52.0
2022-08-14T09:03:17.183Z,52.3
2022-08-14T09:04:17.753Z,51.1
2022-08-14T09:05:17.019Z,50.2
2022-08-14T09:07:01.605Z,50.7
2022-08-14T09:07:18.241Z,51.1
2022-08-14T09:08:31.148Z,50.9
2022-08-14T09:09:17.847Z,52.3
2022-08-14T09:10:22.383Z,52.4
2022-08-14T09:11:21.511Z,52.1
2022-08-14T09:12:17.895Z,52.1
2022-08-14T09:13:16.831Z,51.7
2022-08-14T09:14:18.635Z,52.0
2022-08-14T09:15:17.727Z,51.8
2022-08-14T09:16:19.936Z,51.5
2022-08-14T09:17:17.415Z,51.3
2022-08-14T09:18:18.646Z,51.7
2022-08-14T09:19:16.644Z,51.1
2022-08-14T09:20:29.735Z,51.5
2022-08-14T09:21:17.216Z,51.7
2022-08-14T09:22:33.113Z,51.3
2022-08-14T09:23:17.026Z,49.6
2022-08-14T09:24:32.587Z,48.9
2022-08-14T09:25:16.888Z,49.9
2022-08-14T09:26:21.772Z,49.2
2022-08-14T09:27:23.331Z,49.8
2022-08-14T09:28:16.989Z,50.1
2022-08-14T09:29:16.402Z,50.5
2022-08-14T09:30:31.819Z,49.6
2022-08-14T09:31:18.333Z,49.6
2022-08-14T09:32:58.558Z,48.4
2022-08-14T09:33:23.226Z,49.7
2022-08-14T09:34:28.507Z,48.8
2022-08-14T09:35:17.001Z,48.1
2022-08-14T09:36:18.742Z,48.6
2022-08-14T09:37:17.179Z,48.0
2022-08-14T09:38:27.296Z,48.2
2022-08-14T09:39:23.766Z,50.2
2022-08-14T09:40:21.953Z,51.4
2022-08-14T09:41:17.745Z,49.8
2022-08-14T09:42:32.983Z,49.0
2022-08-14T09:43:22.809Z,48.1
2022-08-14T09:44:21.295Z,48.4
2022-08-14T09:45:16.988Z,48.0
2022-08-14T09:46:25.646Z,49.0
2022-08-14T09:47:17.412Z,48.2
2022-08-14T09:48:17.072Z,50.5
2022-08-14T09:49:17.447Z,52.1
2022-08-14T09:50:16.735Z,50.1
2022-08-14T09:51:19.245Z,49.1
2022-08-14T09:52:33.673Z,49.3
2022-08-14T09:53:18.609Z,50.5
2022-08-14T09:54:23.948Z,48.8
2022-08-14T09:55:16.467Z,48.1
2022-08-14T09:56:30.225Z,47.7
2022-08-14T09:57:17.866Z,48.6
2022-08-14T09:58:24.642Z,48.4
2022-08-14T09:59:17.178Z,47.0
2022-08-14T10:00:29.583Z,48.2
2022-08-14T10:01:18.184Z,48.6
2022-08-14T10:02:16.876Z,49.4
2022-08-14T10:03:17.390Z,49.8
2022-08-14T10:04:33.330Z,48.8
2022-08-14T10:05:17.950Z,47.6
2022-08-14T10:06:19.925Z,47.9
2022-08-14T10:07:17.397Z,48.0
2022-08-14T10:08:26.156Z,46.0
2022-08-14T10:09:17.242Z,46.0
2022-08-14T10:10:24.072Z,45.3
2022-08-14T10:11:16.799Z,44.7
2022-08-14T10:12:29.474Z,44.7
2022-08-14T10:13:16.966Z,47.3
2022-08-14T10:14:35.582Z,47.4
2022-08-14T10:15:16.857Z,47.6
2022-08-14T10:16:33.372Z,48.0
2022-08-14T10:17:17.972Z,46.9
2022-08-14T10:18:18.737Z,45.2
2022-08-14T10:19:20.600Z,44.9
2022-08-14T10:20:40.125Z,44.5
2022-08-14T10:21:16.630Z,46.3
2022-08-14T10:23:13.928Z,47.1
2022-08-14T10:23:23.160Z,47.0
2022-08-14T10:24:17.824Z,48.1
2022-08-14T10:25:17.139Z,47.7
2022-08-14T10:26:28.346Z,47.6
2022-08-14T10:27:17.022Z,46.7
2022-08-14T10:28:39.710Z,45.9
2022-08-14T10:29:23.892Z,46.1
2022-08-14T10:30:25.500Z,48.0
2022-08-14T10:31:19.932Z,49.4
2022-08-14T10:32:28.192Z,50.3
2022-08-14T10:33:17.594Z,50.3
2022-08-14T10:34:19.145Z,50.3
2022-08-14T10:35:16.603Z,50.2
2022-08-14T10:36:34.649Z,49.4
2022-08-14T10:37:18.580Z,49.6
2022-08-14T10:38:18.115Z,52.4
2022-08-14T10:39:16.568Z,53.2
2022-08-14T10:40:38.961Z,53.7
2022-08-14T10:41:16.601Z,51.7
2022-08-14T10:42:21.421Z,50.0
2022-08-14T10:43:16.879Z,51.4
2022-08-14T10:44:21.938Z,51.2
2022-08-14T10:45:17.521Z,51.2
2022-08-14T10:47:25.094Z,51.6
2022-08-14T10:47:38.229Z,52.3
2022-08-14T10:48:36.694Z,53.1
2022-08-14T10:49:17.400Z,52.7
2022-08-14T10:50:16.852Z,52.5
2022-08-14T10:51:17.278Z,52.1
2022-08-14T10:52:22.183Z,51.8
2022-08-14T10:53:16.665Z,51.9
2022-08-14T10:54:35.659Z,52.4
2022-08-14T10:55:16.737Z,53.0
2022-08-14T10:56:32.298Z,52.4
2022-08-14T10:57:17.241Z,50.5
2022-08-14T10:58:18.056Z,51.2
2022-08-14T10:59:16.856Z,52.2
2022-08-14T11:00:29.676Z,53.0
2022-08-14T11:01:16.591Z,52.9
2022-08-14T11:02:17.768Z,52.3
2022-08-14T11:03:26.571Z,51.3
2022-08-14T11:04:17.134Z,50.6
2022-08-14T11:05:16.596Z,50.2
2022-08-14T11:06:17.010Z,51.4
2022-08-14T11:07:21.616Z,51.6
2022-08-14T11:08:17.069Z,52.4
2022-08-14T11:09:17.311Z,52.6
2022-08-14T11:10:16.774Z,52.0
2022-08-14T11:11:18.176Z,53.1
2022-08-14T11:12:33.342Z,52.8
2022-08-14T11:13:16.457Z,52.8
2022-08-14T11:14:22.584Z,52.8
2022-08-14T11:15:16.447Z,51.9
2022-08-14T11:16:17.795Z,51.9
2022-08-14T11:17:22.022Z,52.0
2022-08-14T11:18:30.459Z,52.8
2022-08-14T11:19:17.213Z,53.3
2022-08-14T11:20:17.012Z,53.1
2022-08-14T11:21:16.820Z,53.9
2022-08-14T11:22:53.214Z,53.8
2022-08-14T11:23:17.135Z,53.9
2022-08-14T11:24:50.375Z,53.6
2022-08-14T11:25:17.017Z,53.3
2022-08-14T11:26:16.872Z,53.5
2022-08-14T11:27:19.144Z,53.6
2022-08-14T11:28:19.692Z,53.5
2022-08-14T11:29:17.422Z,53.7
2022-08-14T11:30:49.587Z,53.7
2022-08-14T11:31:17.419Z,52.4
2022-08-14T11:32:16.599Z,51.6
2022-08-14T11:33:17.068Z,50.7
2022-08-14T11:34:30.112Z,51.9
2022-08-14T11:35:17.002Z,52.5
2022-08-14T11:36:19.101Z,52.4
2022-08-14T11:37:36.492Z,52.0
2022-08-14T11:38:18.101Z,51.6
2022-08-14T11:39:34.209Z,51.5
2022-08-14T11:40:20.128Z,51.5
2022-08-14T11:41:17.594Z,51.5
2022-08-14T11:42:56.088Z,52.2
2022-08-14T11:43:16.980Z,52.4
2022-08-14T11:44:45.271Z,52.2
2022-08-14T11:45:23.348Z,51.9
2022-08-14T11:46:30.069Z,51.6
2022-08-14T11:47:16.897Z,50.0
2022-08-14T11:48:59.809Z,50.3
2022-08-14T11:49:22.257Z,50.4
2022-08-14T11:50:34.210Z,51.1
2022-08-14T11:51:17.877Z,51.7
2022-08-14T11:52:17.835Z,51.5
2022-08-14T11:53:17.303Z,52.0
2022-08-14T11:54:20.331Z,51.8
2022-08-14T11:55:16.675Z,52.3
2022-08-14T11:56:17.776Z,52.3
2022-08-14T11:57:18.913Z,52.5
2022-08-14T11:58:24.639Z,52.8
2022-08-14T11:59:17.120Z,52.2
2022-08-14T12:00:19.992Z,52.2
2022-08-14T12:01:17.095Z,52.2
2022-08-14T12:02:36.135Z,52.5
2022-08-14T12:03:23.468Z,52.3
2022-08-14T12:04:32.949Z,52.4
2022-08-14T12:05:18.051Z,52.7
2022-08-14T12:06:38.630Z,52.3
2022-08-14T12:07:17.023Z,52.6
2022-08-14T12:08:24.795Z,52.9
2022-08-14T12:09:16.625Z,52.8
2022-08-14T12:10:37.066Z,52.6
2022-08-14T12:11:16.575Z,53.0
2022-08-14T12:12:35.419Z,52.9
2022-08-14T12:13:17.864Z,52.9
2022-08-14T12:14:35.000Z,52.7
2022-08-14T12:15:16.443Z,52.8
2022-08-14T12:16:23.053Z,52.9
2022-08-14T12:17:24.306Z,52.9
2022-08-14T12:18:20.025Z,53.0
2022-08-14T12:19:16.486Z,53.0
2022-08-14T12:20:29.784Z,53.5
2022-08-14T12:21:19.661Z,53.7
2022-08-14T12:22:30.006Z,53.9
2022-08-14T12:23:17.489Z,53.8
2022-08-14T12:24:31.974Z,53.8
2022-08-14T12:25:16.723Z,53.8
2022-08-14T12:26:32.278Z,53.6
2022-08-14T12:27:25.254Z,53.7
2022-08-14T12:28:33.619Z,53.6
2022-08-14T12:29:16.491Z,53.6
2022-08-14T12:30:21.519Z,53.7
2022-08-14T12:31:20.925Z,53.6
2022-08-14T12:32:17.270Z,53.7
2022-08-14T12:33:18.171Z,53.5
2022-08-14T12:34:24.208Z,53.2
2022-08-14T12:35:17.590Z,53.4
2022-08-14T12:36:20.881Z,53.4
2022-08-14T12:37:18.002Z,53.6
2022-08-14T12:38:21.393Z,53.8
2022-08-14T12:39:16.870Z,53.7
2022-08-14T12:40:21.160Z,53.4
2022-08-14T12:41:21.905Z,53.6
2022-08-14T12:42:34.790Z,53.5
2022-08-14T12:43:16.859Z,53.5
2022-08-14T12:44:20.641Z,53.3
2022-08-14T12:45:17.692Z,53.2
2022-08-14T12:46:28.435Z,53.0
2022-08-14T12:47:17.240Z,53.0
2022-08-14T12:48:31.409Z,52.9
2022-08-14T12:49:18.016Z,53.0
2022-08-14T12:50:16.434Z,52.8
2022-08-14T12:51:16.859Z,52.5
2022-08-14T12:52:17.577Z,52.3
2022-08-14T12:53:17.690Z,52.2
2022-08-14T12:54:29.248Z,52.1
2022-08-14T12:55:18.370Z,51.6
2022-08-14T12:56:32.861Z,51.0
2022-08-14T12:57:20.683Z,51.2
2022-08-14T12:58:36.578Z,51.1
2022-08-14T12:59:16.828Z,51.4
2022-08-14T13:00:24.395Z,51.3
2022-08-14T13:01:20.981Z,51.7
2022-08-14T13:02:17.033Z,51.4
2022-08-14T13:03:16.906Z,51.6
2022-08-14T13:04:19.162Z,51.9
2022-08-14T13:05:16.588Z,52.1
2022-08-14T13:06:17.053Z,52.2
2022-08-14T13:07:16.469Z,52.3
2022-08-14T13:08:33.119Z,52.3
2022-08-14T13:09:16.566Z,52.4
2022-08-14T13:10:46.492Z,52.3
2022-08-14T13:11:16.459Z,52.5
2022-08-14T13:12:31.661Z,52.2
2022-08-14T13:13:18.173Z,52.3
2022-08-14T13:14:17.994Z,52.5
2022-08-14T13:15:16.468Z,52.6
2022-08-14T13:16:33.945Z,52.6
2022-08-14T13:17:17.644Z,52.7
2022-08-14T13:18:17.124Z,52.8